sensor_id;sensor_type;location;lat;lon;timestamp;P1;durP1;ratioP1;P2;durP2;ratioP2
34960;SDS011;30789;52.030;7.110;2023-07-13T00:00:46;5.53;;;1.65;;
34960;SDS011;30789;52.030;7.110;2023-07-13T00:03:12;6.40;;;2.15;;
34960;SDS011;30789;52.030;7.110;2023-07-13T00:05:39;5.25;;;1.77;;
34960;SDS011;30789;52.030;7.110;2023-07-13T00:08:06;6.28;;;1.65;;
34960;SDS011;30789;52.030;7.110;2023-07-13T00:10:33;6.22;;;1.88;;
34960;SDS011;30789;52.030;7.110;2023-07-13T00:13:00;6.10;;;1.80;;
34960;SDS011;30789;52.030;7.110;2023-07-13T00:15:28;4.45;;;1.77;;
34960;SDS011;30789;52.030;7.110;2023-07-13T00:17:56;5.60;;;1.73;;
34960;SDS011;30789;52.030;7.110;2023-07-13T00:20:26;6.07;;;1.65;;
34960;SDS011;30789;52.030;7.110;2023-07-13T00:22:53;5.60;;;1.70;;
34960;SDS011;30789;52.030;7.110;2023-07-13T00:25:19;6.03;;;1.83;;
34960;SDS011;30789;52.030;7.110;2023-07-13T00:27:49;8.88;;;2.00;;
34960;SDS011;30789;52.030;7.110;2023-07-13T00:30:15;8.15;;;1.83;;
34960;SDS011;30789;52.030;7.110;2023-07-13T00:32:44;7.25;;;1.83;;
34960;SDS011;30789;52.030;7.110;2023-07-13T00:35:12;5.70;;;1.90;;
34960;SDS011;30789;52.030;7.110;2023-07-13T00:37:40;5.90;;;1.80;;
34960;SDS011;30789;52.030;7.110;2023-07-13T00:40:07;8.98;;;2.33;;
34960;SDS011;30789;52.030;7.110;2023-07-13T00:42:35;5.35;;;1.67;;
34960;SDS011;30789;52.030;7.110;2023-07-13T00:45:04;7.32;;;2.17;;
34960;SDS011;30789;52.030;7.110;2023-07-13T00:47:32;8.40;;;2.05;;
34960;SDS011;30789;52.030;7.110;2023-07-13T00:50:01;5.97;;;1.95;;
34960;SDS011;30789;52.030;7.110;2023-07-13T00:52:30;8.20;;;2.17;;
34960;SDS011;30789;52.030;7.110;2023-07-13T00:54:57;6.07;;;1.83;;
34960;SDS011;30789;52.030;7.110;2023-07-13T00:57:24;6.68;;;1.92;;
34960;SDS011;30789;52.030;7.110;2023-07-13T00:59:52;5.70;;;1.80;;
34960;SDS011;30789;52.030;7.110;2023-07-13T01:02:21;6.93;;;2.10;;
34960;SDS011;30789;52.030;7.110;2023-07-13T01:04:48;3.70;;;2.15;;
34960;SDS011;30789;52.030;7.110;2023-07-13T01:07:16;4.90;;;1.75;;
34960;SDS011;30789;52.030;7.110;2023-07-13T01:09:45;9.38;;;2.55;;
34960;SDS011;30789;52.030;7.110;2023-07-13T01:12:11;2.83;;;1.80;;
34960;SDS011;30789;52.030;7.110;2023-07-13T01:14:38;5.82;;;2.25;;
34960;SDS011;30789;52.030;7.110;2023-07-13T01:17:07;4.65;;;2.17;;
34960;SDS011;30789;52.030;7.110;2023-07-13T01:19:36;6.95;;;2.10;;
34960;SDS011;30789;52.030;7.110;2023-07-13T01:22:06;5.85;;;2.00;;
34960;SDS011;30789;52.030;7.110;2023-07-13T01:24:36;4.82;;;1.95;;
34960;SDS011;30789;52.030;7.110;2023-07-13T01:27:04;4.97;;;1.58;;
34960;SDS011;30789;52.030;7.110;2023-07-13T01:29:33;8.35;;;2.30;;
34960;SDS011;30789;52.030;7.110;2023-07-13T01:32:07;3.55;;;1.92;;
34960;SDS011;30789;52.030;7.110;2023-07-13T01:34:34;6.03;;;1.67;;
34960;SDS011;30789;52.030;7.110;2023-07-13T01:37:02;6.57;;;1.98;;
34960;SDS011;30789;52.030;7.110;2023-07-13T01:39:30;5.32;;;1.80;;
34960;SDS011;30789;52.030;7.110;2023-07-13T01:41:57;6.88;;;2.30;;
34960;SDS011;30789;52.030;7.110;2023-07-13T01:44:23;8.38;;;2.30;;
34960;SDS011;30789;52.030;7.110;2023-07-13T01:46:50;9.98;;;2.45;;
34960;SDS011;30789;52.030;7.110;2023-07-13T01:49:17;6.47;;;2.03;;
34960;SDS011;30789;52.030;7.110;2023-07-13T01:51:44;4.75;;;1.73;;
34960;SDS011;30789;52.030;7.110;2023-07-13T01:54:10;6.07;;;1.98;;
34960;SDS011;30789;52.030;7.110;2023-07-13T01:56:38;7.38;;;2.10;;
34960;SDS011;30789;52.030;7.110;2023-07-13T01:59:06;5.15;;;1.80;;
34960;SDS011;30789;52.030;7.110;2023-07-13T02:01:33;7.47;;;1.92;;
34960;SDS011;30789;52.030;7.110;2023-07-13T02:03:59;9.05;;;2.45;;
34960;SDS011;30789;52.030;7.110;2023-07-13T02:06:26;6.47;;;2.30;;
34960;SDS011;30789;52.030;7.110;2023-07-13T02:08:52;7.93;;;2.22;;
34960;SDS011;30789;52.030;7.110;2023-07-13T02:11:19;5.82;;;2.20;;
34960;SDS011;30789;52.030;7.110;2023-07-13T02:13:47;10.02;;;2.03;;
34960;SDS011;30789;52.030;7.110;2023-07-13T02:16:14;5.20;;;2.25;;
34960;SDS011;30789;52.030;7.110;2023-07-13T02:18:41;6.80;;;2.08;;
34960;SDS011;30789;52.030;7.110;2023-07-13T02:21:08;8.15;;;2.05;;
34960;SDS011;30789;52.030;7.110;2023-07-13T02:23:34;4.93;;;2.13;;
34960;SDS011;30789;52.030;7.110;2023-07-13T02:26:01;4.68;;;2.25;;
34960;SDS011;30789;52.030;7.110;2023-07-13T02:28:29;5.78;;;2.03;;
34960;SDS011;30789;52.030;7.110;2023-07-13T02:31:04;8.27;;;2.38;;
34960;SDS011;30789;52.030;7.110;2023-07-13T02:33:32;7.47;;;2.70;;
34960;SDS011;30789;52.030;7.110;2023-07-13T02:35:58;7.78;;;2.30;;
34960;SDS011;30789;52.030;7.110;2023-07-13T02:38:25;7.18;;;1.88;;
34960;SDS011;30789;52.030;7.110;2023-07-13T02:40:52;5.07;;;2.08;;
34960;SDS011;30789;52.030;7.110;2023-07-13T02:43:18;6.15;;;2.30;;
34960;SDS011;30789;52.030;7.110;2023-07-13T02:45:45;5.60;;;2.50;;
34960;SDS011;30789;52.030;7.110;2023-07-13T02:48:14;7.78;;;2.38;;
34960;SDS011;30789;52.030;7.110;2023-07-13T02:50:40;6.60;;;1.98;;
34960;SDS011;30789;52.030;7.110;2023-07-13T02:53:07;6.70;;;2.30;;
34960;SDS011;30789;52.030;7.110;2023-07-13T02:55:33;5.75;;;1.85;;
34960;SDS011;30789;52.030;7.110;2023-07-13T02:58:00;6.22;;;2.40;;
34960;SDS011;30789;52.030;7.110;2023-07-13T03:00:26;7.40;;;2.35;;
34960;SDS011;30789;52.030;7.110;2023-07-13T03:02:53;4.28;;;2.10;;
34960;SDS011;30789;52.030;7.110;2023-07-13T03:05:24;5.88;;;2.38;;
34960;SDS011;30789;52.030;7.110;2023-07-13T03:07:50;6.35;;;2.30;;
34960;SDS011;30789;52.030;7.110;2023-07-13T03:10:17;3.60;;;2.33;;
34960;SDS011;30789;52.030;7.110;2023-07-13T03:12:43;7.03;;;2.05;;
34960;SDS011;30789;52.030;7.110;2023-07-13T03:15:10;5.30;;;2.15;;
34960;SDS011;30789;52.030;7.110;2023-07-13T03:17:37;5.95;;;2.30;;
34960;SDS011;30789;52.030;7.110;2023-07-13T03:20:04;6.82;;;1.98;;
34960;SDS011;30789;52.030;7.110;2023-07-13T03:22:33;8.10;;;2.50;;
34960;SDS011;30789;52.030;7.110;2023-07-13T03:25:00;6.72;;;2.00;;
34960;SDS011;30789;52.030;7.110;2023-07-13T03:27:26;5.85;;;2.00;;
34960;SDS011;30789;52.030;7.110;2023-07-13T03:29:53;4.85;;;1.70;;
34960;SDS011;30789;52.030;7.110;2023-07-13T03:32:20;6.63;;;2.03;;
34960;SDS011;30789;52.030;7.110;2023-07-13T03:34:46;6.43;;;1.80;;
34960;SDS011;30789;52.030;7.110;2023-07-13T03:37:12;4.45;;;2.10;;
34960;SDS011;30789;52.030;7.110;2023-07-13T03:39:40;7.97;;;2.00;;
34960;SDS011;30789;52.030;7.110;2023-07-13T03:42:07;4.72;;;1.98;;
34960;SDS011;30789;52.030;7.110;2023-07-13T03:44:34;5.80;;;1.90;;
34960;SDS011;30789;52.030;7.110;2023-07-13T03:47:01;7.50;;;2.20;;
34960;SDS011;30789;52.030;7.110;2023-07-13T03:49:27;4.80;;;2.08;;
34960;SDS011;30789;52.030;7.110;2023-07-13T03:51:54;3.67;;;1.98;;
34960;SDS011;30789;52.030;7.110;2023-07-13T03:54:21;5.00;;;1.90;;
34960;SDS011;30789;52.030;7.110;2023-07-13T03:56:48;3.55;;;1.60;;
34960;SDS011;30789;52.030;7.110;2023-07-13T03:59:15;4.85;;;2.05;;
34960;SDS011;30789;52.030;7.110;2023-07-13T04:01:43;7.50;;;1.70;;
34960;SDS011;30789;52.030;7.110;2023-07-13T04:04:09;6.05;;;1.95;;
34960;SDS011;30789;52.030;7.110;2023-07-13T04:06:36;8.43;;;2.30;;
34960;SDS011;30789;52.030;7.110;2023-07-13T04:09:04;6.03;;;2.05;;
34960;SDS011;30789;52.030;7.110;2023-07-13T04:11:31;6.28;;;2.03;;
34960;SDS011;30789;52.030;7.110;2023-07-13T04:14:00;10.32;;;2.00;;
34960;SDS011;30789;52.030;7.110;2023-07-13T04:16:27;5.63;;;1.88;;
34960;SDS011;30789;52.030;7.110;2023-07-13T04:18:54;8.98;;;2.50;;
34960;SDS011;30789;52.030;7.110;2023-07-13T04:21:25;4.25;;;1.67;;
34960;SDS011;30789;52.030;7.110;2023-07-13T04:23:52;10.52;;;2.30;;
34960;SDS011;30789;52.030;7.110;2023-07-13T04:26:19;7.25;;;1.80;;
34960;SDS011;30789;52.030;7.110;2023-07-13T04:28:47;5.97;;;1.88;;
34960;SDS011;30789;52.030;7.110;2023-07-13T04:31:16;5.93;;;1.58;;
34960;SDS011;30789;52.030;7.110;2023-07-13T04:33:43;7.50;;;2.08;;
34960;SDS011;30789;52.030;7.110;2023-07-13T04:36:10;6.20;;;1.92;;
34960;SDS011;30789;52.030;7.110;2023-07-13T04:38:36;6.22;;;2.00;;
34960;SDS011;30789;52.030;7.110;2023-07-13T04:41:04;6.25;;;2.55;;
34960;SDS011;30789;52.030;7.110;2023-07-13T04:43:32;8.70;;;2.30;;
34960;SDS011;30789;52.030;7.110;2023-07-13T04:46:02;8.10;;;2.00;;
34960;SDS011;30789;52.030;7.110;2023-07-13T04:48:32;4.38;;;1.80;;
34960;SDS011;30789;52.030;7.110;2023-07-13T04:50:59;8.65;;;2.33;;
34960;SDS011;30789;52.030;7.110;2023-07-13T04:53:27;7.50;;;2.30;;
34960;SDS011;30789;52.030;7.110;2023-07-13T04:55:54;5.30;;;2.10;;
34960;SDS011;30789;52.030;7.110;2023-07-13T04:58:21;10.20;;;2.05;;
34960;SDS011;30789;52.030;7.110;2023-07-13T05:00:48;7.90;;;2.08;;
34960;SDS011;30789;52.030;7.110;2023-07-13T05:03:15;9.27;;;2.35;;
34960;SDS011;30789;52.030;7.110;2023-07-13T05:05:43;6.50;;;2.28;;
34960;SDS011;30789;52.030;7.110;2023-07-13T05:08:21;7.93;;;2.20;;
34960;SDS011;30789;52.030;7.110;2023-07-13T05:10:47;4.78;;;2.45;;
34960;SDS011;30789;52.030;7.110;2023-07-13T05:13:14;7.65;;;2.20;;
34960;SDS011;30789;52.030;7.110;2023-07-13T05:15:40;6.53;;;2.08;;
34960;SDS011;30789;52.030;7.110;2023-07-13T05:18:07;3.92;;;2.10;;
34960;SDS011;30789;52.030;7.110;2023-07-13T05:20:33;9.02;;;2.45;;
34960;SDS011;30789;52.030;7.110;2023-07-13T05:23:01;8.63;;;2.08;;
34960;SDS011;30789;52.030;7.110;2023-07-13T05:25:28;7.97;;;2.67;;
34960;SDS011;30789;52.030;7.110;2023-07-13T05:27:54;8.13;;;3.13;;
34960;SDS011;30789;52.030;7.110;2023-07-13T05:30:21;8.18;;;2.40;;
34960;SDS011;30789;52.030;7.110;2023-07-13T05:32:47;7.93;;;2.78;;
34960;SDS011;30789;52.030;7.110;2023-07-13T05:35:14;8.70;;;2.95;;
34960;SDS011;30789;52.030;7.110;2023-07-13T05:37:41;9.65;;;2.58;;
34960;SDS011;30789;52.030;7.110;2023-07-13T05:40:09;7.22;;;2.85;;
34960;SDS011;30789;52.030;7.110;2023-07-13T05:42:36;8.75;;;3.13;;
34960;SDS011;30789;52.030;7.110;2023-07-13T05:45:02;7.03;;;2.42;;
34960;SDS011;30789;52.030;7.110;2023-07-13T05:47:30;8.30;;;3.03;;
34960;SDS011;30789;52.030;7.110;2023-07-13T05:49:56;11.52;;;3.15;;
34960;SDS011;30789;52.030;7.110;2023-07-13T05:52:22;8.68;;;2.58;;
34960;SDS011;30789;52.030;7.110;2023-07-13T05:54:49;10.05;;;3.33;;
34960;SDS011;30789;52.030;7.110;2023-07-13T05:57:17;12.23;;;3.40;;
34960;SDS011;30789;52.030;7.110;2023-07-13T05:59:43;6.07;;;2.92;;
34960;SDS011;30789;52.030;7.110;2023-07-13T06:02:10;9.73;;;3.10;;
34960;SDS011;30789;52.030;7.110;2023-07-13T06:04:37;12.27;;;2.88;;
34960;SDS011;30789;52.030;7.110;2023-07-13T06:07:03;10.20;;;2.67;;
34960;SDS011;30789;52.030;7.110;2023-07-13T06:09:30;9.23;;;3.15;;
34960;SDS011;30789;52.030;7.110;2023-07-13T06:11:57;5.93;;;2.78;;
34960;SDS011;30789;52.030;7.110;2023-07-13T06:14:25;9.85;;;3.67;;
34960;SDS011;30789;52.030;7.110;2023-07-13T06:16:51;11.15;;;2.92;;
34960;SDS011;30789;52.030;7.110;2023-07-13T06:19:18;9.32;;;3.85;;
34960;SDS011;30789;52.030;7.110;2023-07-13T06:21:44;12.57;;;3.58;;
34960;SDS011;30789;52.030;7.110;2023-07-13T06:24:11;13.50;;;3.53;;
34960;SDS011;30789;52.030;7.110;2023-07-13T06:26:37;12.13;;;3.90;;
34960;SDS011;30789;52.030;7.110;2023-07-13T06:29:04;7.63;;;3.80;;
34960;SDS011;30789;52.030;7.110;2023-07-13T06:31:32;12.90;;;4.13;;
34960;SDS011;30789;52.030;7.110;2023-07-13T06:33:59;15.20;;;4.65;;
34960;SDS011;30789;52.030;7.110;2023-07-13T06:36:25;10.85;;;4.95;;
34960;SDS011;30789;52.030;7.110;2023-07-13T06:38:52;14.60;;;6.35;;
34960;SDS011;30789;52.030;7.110;2023-07-13T06:43:48;15.02;;;6.05;;
34960;SDS011;30789;52.030;7.110;2023-07-13T06:46:14;13.88;;;6.03;;
34960;SDS011;30789;52.030;7.110;2023-07-13T06:48:42;13.80;;;5.75;;
34960;SDS011;30789;52.030;7.110;2023-07-13T06:51:09;12.63;;;5.97;;
34960;SDS011;30789;52.030;7.110;2023-07-13T06:53:35;15.18;;;6.15;;
34960;SDS011;30789;52.030;7.110;2023-07-13T06:56:02;14.95;;;5.72;;
34960;SDS011;30789;52.030;7.110;2023-07-13T06:58:29;15.02;;;6.10;;
34960;SDS011;30789;52.030;7.110;2023-07-13T07:00:55;15.43;;;5.35;;
34960;SDS011;30789;52.030;7.110;2023-07-13T07:03:22;14.48;;;5.63;;
34960;SDS011;30789;52.030;7.110;2023-07-13T07:05:50;11.38;;;5.55;;
34960;SDS011;30789;52.030;7.110;2023-07-13T07:08:16;12.52;;;5.88;;
34960;SDS011;30789;52.030;7.110;2023-07-13T07:10:43;12.98;;;5.70;;
34960;SDS011;30789;52.030;7.110;2023-07-13T07:13:10;15.23;;;6.10;;
34960;SDS011;30789;52.030;7.110;2023-07-13T07:15:37;16.15;;;6.28;;
34960;SDS011;30789;52.030;7.110;2023-07-13T07:18:03;19.23;;;6.65;;
34960;SDS011;30789;52.030;7.110;2023-07-13T07:20:30;13.10;;;7.25;;
34960;SDS011;30789;52.030;7.110;2023-07-13T07:22:59;13.52;;;6.43;;
34960;SDS011;30789;52.030;7.110;2023-07-13T07:25:25;16.55;;;6.45;;
34960;SDS011;30789;52.030;7.110;2023-07-13T07:27:52;15.00;;;6.90;;
34960;SDS011;30789;52.030;7.110;2023-07-13T07:30:18;10.15;;;6.53;;
34960;SDS011;30789;52.030;7.110;2023-07-13T07:32:45;11.70;;;6.50;;
34960;SDS011;30789;52.030;7.110;2023-07-13T07:35:11;22.38;;;7.05;;
34960;SDS011;30789;52.030;7.110;2023-07-13T07:37:38;18.15;;;6.93;;
34960;SDS011;30789;52.030;7.110;2023-07-13T07:40:07;16.35;;;7.75;;
34960;SDS011;30789;52.030;7.110;2023-07-13T07:42:34;13.30;;;6.65;;
34960;SDS011;30789;52.030;7.110;2023-07-13T07:45:00;12.95;;;6.90;;
34960;SDS011;30789;52.030;7.110;2023-07-13T07:47:27;10.38;;;6.93;;
34960;SDS011;30789;52.030;7.110;2023-07-13T07:49:53;14.05;;;7.50;;
34960;SDS011;30789;52.030;7.110;2023-07-13T07:52:20;14.88;;;7.10;;
34960;SDS011;30789;52.030;7.110;2023-07-13T07:54:46;11.45;;;5.97;;
34960;SDS011;30789;52.030;7.110;2023-07-13T07:57:14;12.63;;;6.22;;
34960;SDS011;30789;52.030;7.110;2023-07-13T07:59:41;14.38;;;7.63;;
34960;SDS011;30789;52.030;7.110;2023-07-13T08:02:08;17.30;;;6.85;;
34960;SDS011;30789;52.030;7.110;2023-07-13T08:04:36;15.70;;;6.63;;
34960;SDS011;30789;52.030;7.110;2023-07-13T08:07:03;12.98;;;6.70;;
34960;SDS011;30789;52.030;7.110;2023-07-13T08:09:31;14.02;;;7.25;;
34960;SDS011;30789;52.030;7.110;2023-07-13T08:11:58;17.95;;;7.97;;
34960;SDS011;30789;52.030;7.110;2023-07-13T08:14:26;15.63;;;6.72;;
34960;SDS011;30789;52.030;7.110;2023-07-13T08:16:53;14.18;;;7.45;;
34960;SDS011;30789;52.030;7.110;2023-07-13T08:19:19;10.85;;;6.57;;
34960;SDS011;30789;52.030;7.110;2023-07-13T08:21:46;18.52;;;7.32;;
34960;SDS011;30789;52.030;7.110;2023-07-13T08:24:14;19.75;;;7.18;;
34960;SDS011;30789;52.030;7.110;2023-07-13T08:26:43;15.68;;;6.47;;
34960;SDS011;30789;52.030;7.110;2023-07-13T08:29:09;14.35;;;7.03;;
34960;SDS011;30789;52.030;7.110;2023-07-13T08:31:38;12.70;;;6.82;;
34960;SDS011;30789;52.030;7.110;2023-07-13T08:34:04;13.68;;;6.93;;
34960;SDS011;30789;52.030;7.110;2023-07-13T08:36:31;17.73;;;7.43;;
34960;SDS011;30789;52.030;7.110;2023-07-13T08:38:57;12.43;;;6.70;;
34960;SDS011;30789;52.030;7.110;2023-07-13T08:41:24;13.15;;;7.05;;
34960;SDS011;30789;52.030;7.110;2023-07-13T08:43:51;15.38;;;6.72;;
34960;SDS011;30789;52.030;7.110;2023-07-13T08:46:24;15.60;;;6.85;;
34960;SDS011;30789;52.030;7.110;2023-07-13T08:48:56;18.45;;;7.68;;
34960;SDS011;30789;52.030;7.110;2023-07-13T08:51:33;18.55;;;7.68;;
34960;SDS011;30789;52.030;7.110;2023-07-13T08:54:10;19.20;;;7.65;;
34960;SDS011;30789;52.030;7.110;2023-07-13T08:56:44;14.68;;;7.30;;
34960;SDS011;30789;52.030;7.110;2023-07-13T08:59:13;18.17;;;7.43;;
34960;SDS011;30789;52.030;7.110;2023-07-13T09:01:46;16.70;;;8.25;;
34960;SDS011;30789;52.030;7.110;2023-07-13T09:04:22;13.02;;;6.95;;
34960;SDS011;30789;52.030;7.110;2023-07-13T09:06:55;13.07;;;6.80;;
34960;SDS011;30789;52.030;7.110;2023-07-13T09:09:29;10.93;;;6.50;;
34960;SDS011;30789;52.030;7.110;2023-07-13T09:12:07;12.27;;;5.97;;
34960;SDS011;30789;52.030;7.110;2023-07-13T09:14:41;13.20;;;6.22;;
34960;SDS011;30789;52.030;7.110;2023-07-13T09:17:22;11.60;;;6.43;;
34960;SDS011;30789;52.030;7.110;2023-07-13T09:20:00;15.77;;;6.03;;
34960;SDS011;30789;52.030;7.110;2023-07-13T09:22:36;16.20;;;5.78;;
34960;SDS011;30789;52.030;7.110;2023-07-13T09:25:05;14.68;;;6.38;;
34960;SDS011;30789;52.030;7.110;2023-07-13T09:27:44;11.52;;;6.20;;
34960;SDS011;30789;52.030;7.110;2023-07-13T09:30:22;15.40;;;5.95;;
34960;SDS011;30789;52.030;7.110;2023-07-13T09:32:59;10.70;;;5.30;;
34960;SDS011;30789;52.030;7.110;2023-07-13T09:35:30;13.50;;;5.50;;
34960;SDS011;30789;52.030;7.110;2023-07-13T09:37:58;10.93;;;5.67;;
34960;SDS011;30789;52.030;7.110;2023-07-13T09:40:32;7.18;;;5.38;;
34960;SDS011;30789;52.030;7.110;2023-07-13T09:43:07;9.32;;;5.57;;
34960;SDS011;30789;52.030;7.110;2023-07-13T09:45:37;12.02;;;5.65;;
34960;SDS011;30789;52.030;7.110;2023-07-13T09:48:07;10.50;;;5.10;;
34960;SDS011;30789;52.030;7.110;2023-07-13T09:50:44;8.88;;;5.30;;
34960;SDS011;30789;52.030;7.110;2023-07-13T09:53:14;14.63;;;5.63;;
34960;SDS011;30789;52.030;7.110;2023-07-13T09:55:42;13.27;;;5.93;;
34960;SDS011;30789;52.030;7.110;2023-07-13T09:58:11;10.20;;;6.10;;
34960;SDS011;30789;52.030;7.110;2023-07-13T10:00:43;11.98;;;6.13;;
34960;SDS011;30789;52.030;7.110;2023-07-13T10:03:21;11.73;;;6.43;;
34960;SDS011;30789;52.030;7.110;2023-07-13T10:06:09;11.38;;;5.72;;
34960;SDS011;30789;52.030;7.110;2023-07-13T10:08:38;11.20;;;5.68;;
34960;SDS011;30789;52.030;7.110;2023-07-13T10:11:08;9.80;;;5.43;;
34960;SDS011;30789;52.030;7.110;2023-07-13T10:13:44;10.45;;;5.25;;
34960;SDS011;30789;52.030;7.110;2023-07-13T10:16:14;10.27;;;5.30;;
34960;SDS011;30789;52.030;7.110;2023-07-13T10:18:42;11.45;;;5.72;;
34960;SDS011;30789;52.030;7.110;2023-07-13T10:21:14;10.55;;;4.93;;
34960;SDS011;30789;52.030;7.110;2023-07-13T10:23:46;8.98;;;5.13;;
34960;SDS011;30789;52.030;7.110;2023-07-13T10:26:19;11.30;;;4.28;;
34960;SDS011;30789;52.030;7.110;2023-07-13T10:28:52;7.97;;;4.13;;
34960;SDS011;30789;52.030;7.110;2023-07-13T10:31:24;14.57;;;3.90;;
34960;SDS011;30789;52.030;7.110;2023-07-13T10:33:50;9.40;;;3.75;;
34960;SDS011;30789;52.030;7.110;2023-07-13T10:36:27;8.43;;;3.78;;
34960;SDS011;30789;52.030;7.110;2023-07-13T10:39:00;7.38;;;3.15;;
34960;SDS011;30789;52.030;7.110;2023-07-13T10:41:30;9.93;;;3.50;;
34960;SDS011;30789;52.030;7.110;2023-07-13T10:44:01;6.85;;;3.40;;
34960;SDS011;30789;52.030;7.110;2023-07-13T10:46:32;7.97;;;3.65;;
34960;SDS011;30789;52.030;7.110;2023-07-13T10:48:59;13.90;;;4.00;;
34960;SDS011;30789;52.030;7.110;2023-07-13T10:51:31;3.65;;;2.47;;
34960;SDS011;30789;52.030;7.110;2023-07-13T10:54:11;8.07;;;3.50;;
34960;SDS011;30789;52.030;7.110;2023-07-13T10:56:43;8.95;;;3.22;;
34960;SDS011;30789;52.030;7.110;2023-07-13T10:59:11;5.72;;;3.47;;
34960;SDS011;30789;52.030;7.110;2023-07-13T11:01:46;6.17;;;2.60;;
34960;SDS011;30789;52.030;7.110;2023-07-13T11:04:19;7.80;;;3.15;;
34960;SDS011;30789;52.030;7.110;2023-07-13T11:06:49;9.80;;;3.58;;
34960;SDS011;30789;52.030;7.110;2023-07-13T11:09:35;7.07;;;3.40;;
34960;SDS011;30789;52.030;7.110;2023-07-13T11:12:08;5.80;;;2.83;;
34960;SDS011;30789;52.030;7.110;2023-07-13T11:14:42;5.93;;;3.03;;
34960;SDS011;30789;52.030;7.110;2023-07-13T11:17:33;5.88;;;2.40;;
34960;SDS011;30789;52.030;7.110;2023-07-13T11:20:09;7.68;;;3.25;;
34960;SDS011;30789;52.030;7.110;2023-07-13T11:22:48;7.60;;;3.13;;
34960;SDS011;30789;52.030;7.110;2023-07-13T11:25:29;9.47;;;3.20;;
34960;SDS011;30789;52.030;7.110;2023-07-13T11:28:05;6.90;;;2.80;;
34960;SDS011;30789;52.030;7.110;2023-07-13T11:30:40;6.38;;;2.90;;
34960;SDS011;30789;52.030;7.110;2023-07-13T11:33:10;7.03;;;3.08;;
34960;SDS011;30789;52.030;7.110;2023-07-13T11:35:42;10.93;;;3.33;;
34960;SDS011;30789;52.030;7.110;2023-07-13T11:38:15;15.23;;;3.97;;
34960;SDS011;30789;52.030;7.110;2023-07-13T11:40:45;6.00;;;3.83;;
34960;SDS011;30789;52.030;7.110;2023-07-13T11:43:14;9.75;;;5.07;;
34960;SDS011;30789;52.030;7.110;2023-07-13T11:45:41;12.20;;;5.80;;
34960;SDS011;30789;52.030;7.110;2023-07-13T11:48:18;11.00;;;5.65;;
34960;SDS011;30789;52.030;7.110;2023-07-13T11:50:49;10.27;;;5.70;;
34960;SDS011;30789;52.030;7.110;2023-07-13T11:53:20;14.15;;;6.10;;
34960;SDS011;30789;52.030;7.110;2023-07-13T11:55:49;11.83;;;5.90;;
34960;SDS011;30789;52.030;7.110;2023-07-13T11:58:17;9.05;;;5.38;;
34960;SDS011;30789;52.030;7.110;2023-07-13T12:00:49;16.42;;;5.68;;
34960;SDS011;30789;52.030;7.110;2023-07-13T12:03:17;7.13;;;4.70;;
34960;SDS011;30789;52.030;7.110;2023-07-13T12:05:55;7.90;;;4.05;;
34960;SDS011;30789;52.030;7.110;2023-07-13T12:08:25;6.85;;;3.55;;
34960;SDS011;30789;52.030;7.110;2023-07-13T12:11:03;8.38;;;4.07;;
34960;SDS011;30789;52.030;7.110;2023-07-13T12:13:35;8.80;;;4.13;;
34960;SDS011;30789;52.030;7.110;2023-07-13T12:16:07;10.40;;;4.43;;
34960;SDS011;30789;52.030;7.110;2023-07-13T12:18:38;6.22;;;3.67;;
34960;SDS011;30789;52.030;7.110;2023-07-13T12:21:10;6.30;;;3.45;;
34960;SDS011;30789;52.030;7.110;2023-07-13T12:23:42;6.07;;;3.15;;
34960;SDS011;30789;52.030;7.110;2023-07-13T12:26:10;5.60;;;3.22;;
34960;SDS011;30789;52.030;7.110;2023-07-13T12:28:40;5.95;;;3.13;;
34960;SDS011;30789;52.030;7.110;2023-07-13T12:31:19;6.43;;;2.97;;
34960;SDS011;30789;52.030;7.110;2023-07-13T12:33:55;5.55;;;2.80;;
34960;SDS011;30789;52.030;7.110;2023-07-13T12:36:23;8.50;;;2.78;;
34960;SDS011;30789;52.030;7.110;2023-07-13T12:38:51;4.40;;;2.25;;
34960;SDS011;30789;52.030;7.110;2023-07-13T12:41:18;5.47;;;2.65;;
34960;SDS011;30789;52.030;7.110;2023-07-13T12:43:48;6.97;;;3.45;;
34960;SDS011;30789;52.030;7.110;2023-07-13T12:46:18;6.28;;;3.35;;
34960;SDS011;30789;52.030;7.110;2023-07-13T12:48:48;5.55;;;3.30;;
34960;SDS011;30789;52.030;7.110;2023-07-13T12:51:16;4.10;;;3.08;;
34960;SDS011;30789;52.030;7.110;2023-07-13T12:56:21;5.28;;;3.17;;
34960;SDS011;30789;52.030;7.110;2023-07-13T12:58:54;2.97;;;2.47;;
34960;SDS011;30789;52.030;7.110;2023-07-13T13:01:25;7.35;;;3.55;;
34960;SDS011;30789;52.030;7.110;2023-07-13T13:03:54;8.82;;;3.55;;
34960;SDS011;30789;52.030;7.110;2023-07-13T13:06:22;6.85;;;3.22;;
34960;SDS011;30789;52.030;7.110;2023-07-13T13:08:52;4.88;;;3.03;;
34960;SDS011;30789;52.030;7.110;2023-07-13T13:11:22;5.97;;;3.67;;
34960;SDS011;30789;52.030;7.110;2023-07-13T13:13:51;6.30;;;3.63;;
34960;SDS011;30789;52.030;7.110;2023-07-13T13:16:19;5.70;;;3.40;;
34960;SDS011;30789;52.030;7.110;2023-07-13T13:18:48;3.85;;;3.30;;
34960;SDS011;30789;52.030;7.110;2023-07-13T13:21:15;5.00;;;3.35;;
34960;SDS011;30789;52.030;7.110;2023-07-13T13:23:42;3.83;;;2.80;;
34960;SDS011;30789;52.030;7.110;2023-07-13T13:26:10;5.32;;;3.00;;
34960;SDS011;30789;52.030;7.110;2023-07-13T13:28:39;6.22;;;3.83;;
34960;SDS011;30789;52.030;7.110;2023-07-13T13:31:07;4.07;;;3.30;;
34960;SDS011;30789;52.030;7.110;2023-07-13T13:33:37;4.30;;;3.15;;
34960;SDS011;30789;52.030;7.110;2023-07-13T13:36:08;3.80;;;3.28;;
34960;SDS011;30789;52.030;7.110;2023-07-13T13:38:40;4.07;;;2.80;;
34960;SDS011;30789;52.030;7.110;2023-07-13T13:41:07;6.75;;;2.97;;
34960;SDS011;30789;52.030;7.110;2023-07-13T13:43:35;3.05;;;2.67;;
34960;SDS011;30789;52.030;7.110;2023-07-13T13:46:05;3.15;;;2.50;;
34960;SDS011;30789;52.030;7.110;2023-07-13T13:48:39;5.25;;;2.85;;
34960;SDS011;30789;52.030;7.110;2023-07-13T13:51:12;4.78;;;2.95;;
34960;SDS011;30789;52.030;7.110;2023-07-13T13:53:40;4.70;;;3.03;;
34960;SDS011;30789;52.030;7.110;2023-07-13T13:56:07;4.15;;;2.67;;
34960;SDS011;30789;52.030;7.110;2023-07-13T13:58:34;6.10;;;3.05;;
34960;SDS011;30789;52.030;7.110;2023-07-13T14:01:00;3.58;;;2.28;;
34960;SDS011;30789;52.030;7.110;2023-07-13T14:03:31;4.60;;;2.58;;
34960;SDS011;30789;52.030;7.110;2023-07-13T14:05:57;7.20;;;2.50;;
34960;SDS011;30789;52.030;7.110;2023-07-13T14:08:24;5.45;;;2.45;;
34960;SDS011;30789;52.030;7.110;2023-07-13T14:10:51;3.45;;;1.80;;
34960;SDS011;30789;52.030;7.110;2023-07-13T14:13:22;8.20;;;2.53;;
34960;SDS011;30789;52.030;7.110;2023-07-13T14:15:52;4.88;;;2.40;;
34960;SDS011;30789;52.030;7.110;2023-07-13T14:18:21;8.20;;;2.60;;
34960;SDS011;30789;52.030;7.110;2023-07-13T14:20:48;4.82;;;2.40;;
34960;SDS011;30789;52.030;7.110;2023-07-13T14:23:17;2.67;;;1.77;;
34960;SDS011;30789;52.030;7.110;2023-07-13T14:25:44;2.35;;;1.30;;
34960;SDS011;30789;52.030;7.110;2023-07-13T14:28:16;1.88;;;1.25;;
34960;SDS011;30789;52.030;7.110;2023-07-13T14:30:46;2.08;;;1.27;;
34960;SDS011;30789;52.030;7.110;2023-07-13T14:33:12;3.58;;;1.70;;
34960;SDS011;30789;52.030;7.110;2023-07-13T14:35:41;3.00;;;1.90;;
34960;SDS011;30789;52.030;7.110;2023-07-13T14:38:08;3.70;;;2.05;;
34960;SDS011;30789;52.030;7.110;2023-07-13T14:40:38;2.17;;;1.70;;
34960;SDS011;30789;52.030;7.110;2023-07-13T14:43:08;7.13;;;2.50;;
34960;SDS011;30789;52.030;7.110;2023-07-13T14:45:37;5.07;;;1.80;;
34960;SDS011;30789;52.030;7.110;2023-07-13T14:48:09;2.38;;;1.45;;
34960;SDS011;30789;52.030;7.110;2023-07-13T14:50:42;1.67;;;1.40;;
34960;SDS011;30789;52.030;7.110;2023-07-13T14:53:09;2.90;;;1.50;;
34960;SDS011;30789;52.030;7.110;2023-07-13T14:55:36;1.80;;;1.13;;
34960;SDS011;30789;52.030;7.110;2023-07-13T14:58:03;2.58;;;1.35;;